ADDS TAF Data INFO
IDs: Format: Raw Decoded Include METARs

Data at: 2205 UTC 23 May 2018

KVLD 232203Z 2322/2418 21008KT P6SM VCTS BKN035CB
  TEMPO 2323/2401 27010G20KT 3SM TSRA BKN020CB
  FM240200 VRB03KT P6SM BKN030
  FM240800 VRB02KT 5SM BR FEW006
  FM241300 24006KT P6SM SCT015